createdAt,value
2019-01-22T00:00:18.438Z,22.63
2019-01-22T00:02:45.836Z,23.97
2019-01-22T00:05:13.883Z,24.67
2019-01-22T00:07:41.426Z,25.20
2019-01-22T00:10:09.195Z,22.30
2019-01-22T00:12:36.635Z,25.40
2019-01-22T00:15:06.823Z,21.63
2019-01-22T00:17:34.120Z,24.50
2019-01-22T00:20:01.530Z,25.20
2019-01-22T00:22:29.170Z,24.27
2019-01-22T00:24:56.566Z,28.17
2019-01-22T00:27:23.960Z,28.57
2019-01-22T00:29:51.378Z,27.53
2019-01-22T00:32:18.763Z,27.83
2019-01-22T00:34:46.458Z,26.10
2019-01-22T00:37:14.034Z,27.50
2019-01-22T00:39:41.437Z,28.10
2019-01-22T00:42:08.837Z,24.63
2019-01-22T00:44:36.733Z,24.00
2019-01-22T00:47:04.126Z,25.43
2019-01-22T00:49:31.815Z,27.40
2019-01-22T00:51:59.275Z,21.10
2019-01-22T00:54:26.670Z,23.27
2019-01-22T00:56:54.084Z,23.47
2019-01-22T00:59:21.807Z,21.77
2019-01-22T01:01:49.202Z,21.27
2019-01-22T01:04:17.266Z,26.23
2019-01-22T01:06:44.814Z,23.87
2019-01-22T01:09:12.208Z,22.90
2019-01-22T01:11:39.629Z,25.30
2019-01-22T01:14:07.067Z,24.73
2019-01-22T01:16:34.469Z,23.50
2019-01-22T01:19:01.876Z,20.70
2019-01-22T01:21:29.370Z,21.03
2019-01-22T01:23:56.760Z,24.10
2019-01-22T01:26:24.166Z,21.37
2019-01-22T01:28:51.767Z,24.43
2019-01-22T01:31:19.157Z,23.20
2019-01-22T01:33:46.551Z,22.63
2019-01-22T01:36:14.298Z,22.53
2019-01-22T01:38:41.678Z,21.50
2019-01-22T01:41:09.082Z,22.20
2019-01-22T01:43:36.748Z,20.20
2019-01-22T01:46:04.146Z,24.87
2019-01-22T01:48:31.549Z,26.10
2019-01-22T01:50:59.008Z,25.73
2019-01-22T01:53:26.611Z,22.20
2019-01-22T01:55:54.010Z,23.93
2019-01-22T01:58:21.439Z,19.83
2019-01-22T02:00:48.840Z,19.30
2019-01-22T02:03:16.238Z,20.80
2019-01-22T02:05:43.985Z,26.00
2019-01-22T02:08:11.770Z,20.53
2019-01-22T02:10:39.485Z,21.50
2019-01-22T02:13:10.150Z,23.27
2019-01-22T02:15:45.237Z,21.23
2019-01-22T02:18:54.853Z,23.30
2019-01-22T02:22:22.470Z,27.57
2019-01-22T02:25:13.264Z,28.27
2019-01-22T02:28:30.757Z,27.20
2019-01-22T02:31:36.482Z,28.17
2019-01-22T02:34:19.963Z,28.23
2019-01-22T02:38:03.126Z,25.80
2019-01-22T02:40:36.333Z,27.70
2019-01-22T02:43:33.777Z,21.87
2019-01-22T02:46:38.503Z,18.87
2019-01-22T02:49:46.378Z,19.97
2019-01-22T02:53:13.561Z,21.90
2019-01-22T02:55:46.026Z,24.43
2019-01-22T02:58:39.208Z,27.53
2019-01-22T03:01:51.416Z,21.43
2019-01-22T03:04:48.416Z,24.73
2019-01-22T03:07:53.558Z,22.20
2019-01-22T03:10:44.268Z,22.40
2019-01-22T03:13:51.979Z,21.13
2019-01-22T03:17:15.630Z,20.33
2019-01-22T03:20:05.815Z,26.17
2019-01-22T03:23:10.245Z,23.03
2019-01-22T03:25:52.437Z,23.87
2019-01-22T03:28:41.941Z,21.73
2019-01-22T03:31:54.702Z,21.73
2019-01-22T03:35:01.911Z,22.00
2019-01-22T03:38:13.142Z,20.20
2019-01-22T03:41:18.243Z,23.17
2019-01-22T03:44:13.959Z,26.07
2019-01-22T03:47:10.181Z,24.00
2019-01-22T03:50:10.862Z,22.00
2019-01-22T03:53:04.386Z,20.00
2019-01-22T03:56:16.988Z,20.50
2019-01-22T03:58:44.381Z,23.90
2019-01-22T04:01:15.166Z,25.80
2019-01-22T04:03:42.713Z,28.67
2019-01-22T04:06:13.891Z,32.47
2019-01-22T04:08:44.323Z,31.77
2019-01-22T04:11:20.017Z,29.33
2019-01-22T04:13:48.084Z,29.83
2019-01-22T04:16:15.423Z,27.80
2019-01-22T04:18:42.874Z,26.73
2019-01-22T04:21:13.387Z,27.37
2019-01-22T04:24:19.002Z,27.50
2019-01-22T04:27:12.177Z,26.30
2019-01-22T04:30:30.579Z,25.20
2019-01-22T04:33:25.283Z,23.57
2019-01-22T04:36:29.221Z,30.27
2019-01-22T04:39:44.122Z,25.50
2019-01-22T04:42:38.183Z,21.27
2019-01-22T04:45:30.203Z,24.57
2019-01-22T04:48:40.122Z,24.43
2019-01-22T04:51:36.382Z,26.77
2019-01-22T04:54:45.069Z,27.47
2019-01-22T04:57:40.762Z,23.40
2019-01-22T05:00:50.429Z,26.67
2019-01-22T05:04:10.856Z,54.37
2019-01-22T05:06:50.248Z,28.03
2019-01-22T05:10:14.384Z,25.47
2019-01-22T05:13:23.930Z,22.40
2019-01-22T05:16:35.739Z,26.57
2019-01-22T05:19:27.409Z,33.50
2019-01-22T05:22:23.757Z,26.70
2019-01-22T05:25:07.397Z,29.67
2019-01-22T05:28:25.819Z,26.30
2019-01-22T05:31:46.899Z,30.20
2019-01-22T05:35:00.941Z,27.73
2019-01-22T05:38:02.357Z,30.80
2019-01-22T05:41:10.798Z,29.10
2019-01-22T05:44:15.288Z,30.50
2019-01-22T05:47:27.771Z,29.90
2019-01-22T05:50:36.632Z,30.50
2019-01-22T05:53:30.747Z,30.30
2019-01-22T05:56:35.030Z,31.63
2019-01-22T05:59:39.459Z,32.77
2019-01-22T06:02:17.952Z,30.87
2019-01-22T06:05:24.378Z,31.90
2019-01-22T06:08:22.773Z,33.93
2019-01-22T06:11:38.769Z,29.50
2019-01-22T06:14:40.117Z,30.80
2019-01-22T06:17:49.806Z,29.63
2019-01-22T06:21:13.253Z,32.67
2019-01-22T06:24:09.581Z,31.20
2019-01-22T06:26:51.101Z,30.83
2019-01-22T06:29:54.598Z,31.23
2019-01-22T06:33:19.706Z,34.60
2019-01-22T06:36:47.355Z,32.63
2019-01-22T06:39:36.909Z,30.77
2019-01-22T06:42:45.427Z,31.17
2019-01-22T06:46:06.908Z,31.50
2019-01-22T06:49:18.086Z,27.80
2019-01-22T06:52:16.185Z,34.77
2019-01-22T06:54:55.675Z,28.50
2019-01-22T06:57:49.802Z,27.70
2019-01-22T07:00:51.178Z,26.47
2019-01-22T07:03:46.718Z,25.20
2019-01-22T07:06:23.046Z,26.87
2019-01-22T07:09:14.421Z,24.70
2019-01-22T07:12:05.040Z,27.30
2019-01-22T07:15:20.989Z,29.33
2019-01-22T07:18:13.555Z,24.60
2019-01-22T07:21:21.457Z,30.07
2019-01-22T07:24:02.510Z,32.60
2019-01-22T07:26:53.950Z,31.07
2019-01-22T07:30:11.017Z,27.93
2019-01-22T07:33:02.677Z,30.70
2019-01-22T07:35:42.075Z,33.17
2019-01-22T07:38:51.700Z,35.20
2019-01-22T07:41:49.122Z,29.40
2019-01-22T07:44:53.909Z,30.77
2019-01-22T07:47:31.938Z,36.40
2019-01-22T07:50:38.747Z,41.53
2019-01-22T07:53:42.405Z,31.40
2019-01-22T07:56:31.600Z,28.53
2019-01-22T07:59:30.222Z,26.70
2019-01-22T08:02:44.253Z,31.27
2019-01-22T08:05:39.928Z,26.97
2019-01-22T08:08:49.543Z,66.00
2019-01-22T08:11:54.547Z,40.60
2019-01-22T08:14:59.989Z,46.67
2019-01-22T08:18:11.622Z,46.10
2019-01-22T08:21:35.610Z,31.37
2019-01-22T08:24:41.408Z,28.37
2019-01-22T08:27:40.486Z,30.10
2019-01-22T08:30:53.859Z,31.47
2019-01-22T08:34:01.621Z,29.90
2019-01-22T08:37:05.948Z,28.80
2019-01-22T08:40:17.285Z,38.10
2019-01-22T08:42:59.096Z,33.27
2019-01-22T08:45:56.317Z,31.67
2019-01-22T08:48:54.923Z,29.33
2019-01-22T08:52:03.595Z,31.50
2019-01-22T08:55:07.995Z,28.10
2019-01-22T08:58:27.549Z,29.00
2019-01-22T09:01:19.806Z,28.40
2019-01-22T09:04:23.722Z,27.97
2019-01-22T09:07:17.249Z,31.53
2019-01-22T09:10:30.204Z,32.73
2019-01-22T09:13:24.818Z,34.20
2019-01-22T09:16:32.394Z,35.27
2019-01-22T09:19:23.508Z,32.03
2019-01-22T09:22:25.016Z,32.60
2019-01-22T09:25:02.749Z,33.47
2019-01-22T09:28:27.285Z,33.87
2019-01-22T09:31:25.572Z,36.83
2019-01-22T09:34:18.160Z,34.60
2019-01-22T09:37:09.099Z,34.90
2019-01-22T09:39:36.579Z,35.60
2019-01-22T09:42:03.979Z,35.80
2019-01-22T09:44:31.371Z,32.23
2019-01-22T09:46:58.928Z,34.07
2019-01-22T09:49:26.374Z,35.83
2019-01-22T09:51:53.774Z,35.20
2019-01-22T09:54:21.202Z,37.37
2019-01-22T09:56:48.608Z,35.37
2019-01-22T09:59:16.010Z,34.50
2019-01-22T10:01:44.037Z,36.40
2019-01-22T10:04:11.437Z,35.87
2019-01-22T10:06:38.890Z,31.30
2019-01-22T10:09:08.842Z,32.60
2019-01-22T10:11:36.240Z,32.53
2019-01-22T10:14:04.734Z,30.90
2019-01-22T10:16:32.568Z,33.40
2019-01-22T10:18:59.962Z,32.73
2019-01-22T10:21:27.485Z,36.80
2019-01-22T10:23:55.170Z,37.23
2019-01-22T10:26:22.772Z,32.50
2019-01-22T10:28:50.177Z,34.60
2019-01-22T10:31:17.754Z,31.03
2019-01-22T10:33:45.781Z,28.13
2019-01-22T10:36:13.396Z,26.47
2019-01-22T10:38:40.877Z,30.17
2019-01-22T10:41:08.424Z,29.37
2019-01-22T10:43:35.834Z,26.57
2019-01-22T10:46:03.654Z,24.30
2019-01-22T10:48:31.178Z,26.73
2019-01-22T10:50:58.590Z,26.50
2019-01-22T10:53:26.029Z,24.87
2019-01-22T10:55:53.419Z,23.20
2019-01-22T10:58:20.867Z,23.00
2019-01-22T11:00:48.284Z,22.07
2019-01-22T11:03:15.690Z,22.23
2019-01-22T11:05:43.091Z,21.57
2019-01-22T11:08:10.620Z,20.50
2019-01-22T11:10:38.010Z,20.70
2019-01-22T11:13:05.736Z,21.63
2019-01-22T11:15:33.269Z,21.40
2019-01-22T11:18:01.025Z,21.90
2019-01-22T11:20:28.568Z,20.60
2019-01-22T11:22:56.055Z,24.80
2019-01-22T11:25:24.815Z,22.47
2019-01-22T11:27:52.211Z,21.03
2019-01-22T11:30:21.485Z,20.70
2019-01-22T11:32:49.189Z,19.67
2019-01-22T11:35:17.838Z,21.80
2019-01-22T11:37:45.482Z,21.10
2019-01-22T11:40:16.222Z,25.10
2019-01-22T11:42:43.605Z,22.40
2019-01-22T11:45:11.048Z,23.43
2019-01-22T11:47:38.445Z,19.93
2019-01-22T11:50:09.965Z,20.03
2019-01-22T11:52:37.621Z,20.13
2019-01-22T11:55:05.369Z,20.10
2019-01-22T11:57:32.757Z,19.87
2019-01-22T12:00:00.320Z,20.17
2019-01-22T12:02:31.876Z,18.50
2019-01-22T12:04:56.910Z,19.17
2019-01-22T12:07:24.373Z,23.00
2019-01-22T12:09:51.759Z,22.97
2019-01-22T12:12:19.167Z,20.53
2019-01-22T12:14:46.603Z,22.50
2019-01-22T12:17:14.440Z,20.33
2019-01-22T12:19:41.962Z,21.60
2019-01-22T12:22:09.472Z,20.63
2019-01-22T12:24:36.865Z,23.20
2019-01-22T12:27:04.269Z,21.17
2019-01-22T12:29:31.917Z,24.53
2019-01-22T12:31:59.339Z,24.47
2019-01-22T12:34:26.760Z,26.17
2019-01-22T12:36:54.298Z,24.53
2019-01-22T12:39:21.699Z,21.93
2019-01-22T12:41:49.093Z,22.53
2019-01-22T12:44:16.552Z,24.17
2019-01-22T12:46:43.932Z,23.63
2019-01-22T12:49:11.324Z,25.07
2019-01-22T12:51:38.972Z,25.80
2019-01-22T12:54:06.378Z,24.60
2019-01-22T12:56:33.811Z,25.43
2019-01-22T12:59:01.236Z,21.63
2019-01-22T13:01:28.624Z,24.33
2019-01-22T13:03:56.023Z,25.63
2019-01-22T13:06:23.458Z,27.20
2019-01-22T13:08:50.853Z,25.43
2019-01-22T13:11:18.263Z,24.00
2019-01-22T13:13:45.696Z,26.80
2019-01-22T13:16:13.309Z,26.33
2019-01-22T13:18:41.007Z,25.00
2019-01-22T13:21:08.447Z,26.37
2019-01-22T13:23:35.862Z,23.77
2019-01-22T13:26:03.567Z,24.47
2019-01-22T13:28:31.020Z,25.33
2019-01-22T13:30:58.489Z,26.17
2019-01-22T13:33:25.889Z,24.10
2019-01-22T13:35:53.363Z,25.50
2019-01-22T13:38:20.780Z,23.60
2019-01-22T13:40:48.228Z,23.57
2019-01-22T13:43:15.973Z,25.20
2019-01-22T13:45:43.387Z,27.53
2019-01-22T13:48:14.626Z,24.07
2019-01-22T13:50:42.086Z,24.27
2019-01-22T13:53:09.485Z,25.03
2019-01-22T13:55:37.561Z,24.83
2019-01-22T13:58:05.404Z,24.70
2019-01-22T14:00:33.194Z,25.37
2019-01-22T14:03:00.803Z,26.60
2019-01-22T14:05:28.819Z,23.40
2019-01-22T14:07:56.383Z,26.50
2019-01-22T14:10:23.770Z,25.83
2019-01-22T14:12:51.668Z,25.20
2019-01-22T14:15:21.706Z,24.43
2019-01-22T14:17:49.292Z,24.77
2019-01-22T14:20:17.028Z,24.87
2019-01-22T14:22:44.431Z,24.23
2019-01-22T14:25:13.410Z,27.43
2019-01-22T14:27:40.872Z,26.30
2019-01-22T14:30:14.967Z,26.17
2019-01-22T14:32:42.424Z,26.67
2019-01-22T14:35:10.076Z,25.97
2019-01-22T14:37:37.488Z,28.17
2019-01-22T14:40:06.427Z,25.60
2019-01-22T14:42:33.827Z,28.40
2019-01-22T14:45:01.545Z,32.17
2019-01-22T14:47:28.952Z,27.70
2019-01-22T14:49:56.351Z,26.97
2019-01-22T14:52:23.754Z,28.40
2019-01-22T14:54:51.319Z,32.53
2019-01-22T14:57:21.521Z,30.00
2019-01-22T14:59:47.939Z,42.77
2019-01-22T15:02:15.356Z,28.80
2019-01-22T15:04:42.745Z,35.30
2019-01-22T15:07:10.159Z,37.13
2019-01-22T15:09:37.740Z,31.90
2019-01-22T15:12:05.164Z,28.03
2019-01-22T15:14:32.643Z,29.47
2019-01-22T15:17:00.292Z,33.93
2019-01-22T15:19:27.963Z,29.67
2019-01-22T15:21:55.360Z,26.60
2019-01-22T15:24:22.785Z,28.20
2019-01-22T15:26:50.176Z,26.80
2019-01-22T15:29:17.576Z,22.30
2019-01-22T15:31:45.018Z,22.93
2019-01-22T15:34:12.415Z,21.77
2019-01-22T15:36:39.828Z,19.90
2019-01-22T15:39:08.379Z,17.90
2019-01-22T15:41:35.778Z,20.03
2019-01-22T15:44:03.196Z,20.00
2019-01-22T15:46:30.614Z,18.87
2019-01-22T15:48:58.027Z,17.03
2019-01-22T15:51:25.433Z,19.70
2019-01-22T15:53:52.903Z,16.67
2019-01-22T15:56:20.304Z,16.60
2019-01-22T15:58:47.719Z,18.13
2019-01-22T16:01:15.171Z,15.80
2019-01-22T16:03:42.593Z,17.10
2019-01-22T16:06:09.991Z,18.93
2019-01-22T16:08:37.540Z,17.37
2019-01-22T16:11:04.955Z,20.60
2019-01-22T16:13:32.369Z,19.70
2019-01-22T16:15:59.804Z,18.90
2019-01-22T16:18:27.631Z,19.77
2019-01-22T16:20:55.191Z,30.00
2019-01-22T16:23:22.631Z,22.87
2019-01-22T16:25:51.172Z,19.53
2019-01-22T16:28:18.614Z,18.10
2019-01-22T16:30:46.339Z,19.40
2019-01-22T16:33:13.755Z,16.00
2019-01-22T16:35:41.143Z,17.87
2019-01-22T16:38:08.883Z,17.10
2019-01-22T16:40:36.290Z,17.43
2019-01-22T16:43:03.743Z,17.50
2019-01-22T16:45:35.588Z,14.97
2019-01-22T16:48:03.288Z,17.33
2019-01-22T16:50:33.527Z,18.37
2019-01-22T16:53:03.073Z,17.47
2019-01-22T16:55:32.345Z,18.67
2019-01-22T16:57:59.755Z,17.67
2019-01-22T17:00:29.749Z,17.93
2019-01-22T17:02:57.167Z,20.07
2019-01-22T17:05:24.675Z,19.23
2019-01-22T17:07:52.120Z,20.80
2019-01-22T17:10:19.527Z,26.80
2019-01-22T17:12:46.951Z,24.03
2019-01-22T17:15:14.859Z,24.87
2019-01-22T17:17:42.464Z,26.73
2019-01-22T17:20:17.332Z,28.17
2019-01-22T17:22:43.272Z,23.83
2019-01-22T17:25:10.672Z,22.03
2019-01-22T17:27:38.098Z,23.10
2019-01-22T17:30:08.729Z,26.70
2019-01-22T17:32:42.976Z,26.70
2019-01-22T17:35:10.583Z,24.70
2019-01-22T17:37:38.319Z,25.30
2019-01-22T17:40:07.943Z,30.47
2019-01-22T17:42:35.344Z,25.13
2019-01-22T17:45:03.234Z,25.10
2019-01-22T17:47:30.635Z,22.03
2019-01-22T17:49:58.045Z,21.27
2019-01-22T17:52:25.556Z,22.27
2019-01-22T17:54:52.967Z,23.00
2019-01-22T17:57:20.352Z,23.10
2019-01-22T17:59:47.805Z,22.80
2019-01-22T18:02:15.347Z,23.40
2019-01-22T18:04:42.768Z,22.17
2019-01-22T18:07:10.324Z,20.50
2019-01-22T18:09:37.737Z,23.47
2019-01-22T18:12:05.124Z,25.20
2019-01-22T18:14:32.551Z,22.20
2019-01-22T18:17:00.296Z,23.20
2019-01-22T18:19:28.187Z,24.60
2019-01-22T18:21:55.728Z,22.70
2019-01-22T18:24:23.124Z,19.03
2019-01-22T18:26:50.520Z,24.60
2019-01-22T18:29:17.995Z,22.73
2019-01-22T18:31:45.407Z,22.03
2019-01-22T18:34:12.803Z,23.50
2019-01-22T18:36:40.283Z,22.40
2019-01-22T18:39:07.796Z,23.90
2019-01-22T18:41:35.225Z,20.87
2019-01-22T18:44:02.679Z,22.30
2019-01-22T18:46:30.090Z,19.70
2019-01-22T18:48:57.498Z,20.03
2019-01-22T18:51:24.935Z,18.37
2019-01-22T18:53:52.331Z,18.73
2019-01-22T18:56:19.720Z,18.57
2019-01-22T18:58:47.163Z,21.37
2019-01-22T19:01:14.603Z,25.10
2019-01-22T19:03:42.027Z,26.57
2019-01-22T19:06:09.523Z,32.40
2019-01-22T19:08:36.939Z,35.83
2019-01-22T19:11:04.353Z,25.40
2019-01-22T19:13:31.914Z,22.03
2019-01-22T19:15:59.308Z,19.30
2019-01-22T19:18:26.947Z,17.30
2019-01-22T19:20:54.783Z,18.97
2019-01-22T19:23:22.183Z,21.27
2019-01-22T19:25:49.757Z,18.87
2019-01-22T19:28:17.290Z,20.40
2019-01-22T19:30:44.831Z,18.23
2019-01-22T19:33:12.336Z,19.63
2019-01-22T19:35:40.011Z,18.73
2019-01-22T19:38:07.451Z,19.37
2019-01-22T19:40:34.982Z,22.00
2019-01-22T19:43:02.632Z,21.20
2019-01-22T19:45:32.594Z,22.73
2019-01-22T19:48:00.058Z,20.73
2019-01-22T19:50:27.569Z,21.53
2019-01-22T19:52:54.979Z,20.90
2019-01-22T19:55:22.389Z,22.80
2019-01-22T19:57:50.215Z,20.00
2019-01-22T20:00:20.163Z,21.73
2019-01-22T20:02:47.595Z,20.67
2019-01-22T20:05:15.573Z,18.73
2019-01-22T20:07:43.023Z,19.20
2019-01-22T20:10:12.032Z,19.10
2019-01-22T20:12:39.595Z,16.93
2019-01-22T20:15:08.016Z,18.33
2019-01-22T20:17:35.568Z,19.43
2019-01-22T20:20:05.003Z,18.53
2019-01-22T20:22:32.574Z,18.00
2019-01-22T20:25:00.187Z,17.57
2019-01-22T20:27:27.960Z,17.70
2019-01-22T20:29:55.490Z,18.27
2019-01-22T20:32:22.895Z,17.70
2019-01-22T20:34:50.377Z,17.30
2019-01-22T20:37:17.760Z,17.47
2019-01-22T20:39:45.222Z,15.80
2019-01-22T20:42:12.827Z,14.90
2019-01-22T20:44:40.363Z,13.80
2019-01-22T20:47:07.853Z,13.37
2019-01-22T20:49:35.528Z,13.40
2019-01-22T20:52:03.186Z,12.90
2019-01-22T20:54:30.584Z,15.20
2019-01-22T20:56:58.195Z,14.90
2019-01-22T20:59:25.729Z,15.10
2019-01-22T21:01:53.192Z,13.20
2019-01-22T21:04:21.225Z,13.13
2019-01-22T21:06:48.651Z,14.60
2019-01-22T21:09:16.061Z,14.50
2019-01-22T21:11:43.513Z,15.40
2019-01-22T21:14:10.929Z,17.73
2019-01-22T21:16:38.331Z,17.30
2019-01-22T21:19:05.898Z,16.30
2019-01-22T21:21:33.775Z,15.13
2019-01-22T21:24:01.192Z,16.23
2019-01-22T21:26:28.650Z,17.20
2019-01-22T21:28:56.050Z,16.90
2019-01-22T21:31:23.448Z,17.53
2019-01-22T21:33:50.979Z,17.70
2019-01-22T21:36:18.382Z,16.43
2019-01-22T21:38:45.785Z,16.37
2019-01-22T21:41:13.459Z,15.10
2019-01-22T21:43:40.861Z,13.37
2019-01-22T21:46:08.267Z,13.03
2019-01-22T21:48:35.763Z,13.00
2019-01-22T21:51:03.192Z,14.33
2019-01-22T21:53:30.599Z,16.07
2019-01-22T21:55:58.229Z,14.63
2019-01-22T21:58:25.714Z,14.13
2019-01-22T22:00:53.221Z,14.83
2019-01-22T22:03:20.667Z,15.30
2019-01-22T22:05:48.074Z,14.50
2019-01-22T22:08:15.463Z,16.00
2019-01-22T22:10:42.945Z,17.13
2019-01-22T22:13:10.327Z,14.60
2019-01-22T22:15:37.723Z,16.60
2019-01-22T22:18:05.170Z,17.37
2019-01-22T22:20:32.889Z,14.50
2019-01-22T22:23:00.288Z,12.30
2019-01-22T22:25:27.877Z,16.60
2019-01-22T22:27:55.278Z,16.30
2019-01-22T22:30:31.321Z,15.43
2019-01-22T22:32:58.748Z,15.47
2019-01-22T22:35:26.165Z,14.63
2019-01-22T22:37:53.659Z,14.30
2019-01-22T22:40:21.518Z,15.43
2019-01-22T22:42:48.904Z,13.27
2019-01-22T22:45:17.770Z,13.97
2019-01-22T22:47:45.176Z,14.23
2019-01-22T22:50:15.827Z,15.50
2019-01-22T22:52:43.475Z,11.60
2019-01-22T22:55:10.858Z,13.47
2019-01-22T22:57:38.256Z,11.83
2019-01-22T23:00:16.067Z,13.90
2019-01-22T23:02:43.457Z,14.27
2019-01-22T23:05:10.853Z,13.70
2019-01-22T23:07:38.583Z,14.00
2019-01-22T23:10:06.581Z,10.20
2019-01-22T23:12:33.973Z,10.90
2019-01-22T23:15:02.671Z,11.07
2019-01-22T23:17:30.491Z,10.53
2019-01-22T23:19:58.349Z,11.30
2019-01-22T23:22:25.732Z,8.80
2019-01-22T23:24:53.130Z,10.20
2019-01-22T23:27:20.581Z,8.60
2019-01-22T23:29:47.981Z,9.90
2019-01-22T23:32:15.368Z,9.37
2019-01-22T23:34:42.807Z,9.90
2019-01-22T23:37:10.205Z,11.93
2019-01-22T23:39:37.592Z,11.10
2019-01-22T23:42:05.205Z,9.57
2019-01-22T23:44:32.606Z,7.50
2019-01-22T23:46:59.997Z,7.43
2019-01-22T23:49:27.437Z,7.83
2019-01-22T23:51:54.849Z,8.40
2019-01-22T23:54:22.253Z,9.90
2019-01-22T23:56:49.694Z,9.37
2019-01-22T23:59:17.106Z,10.30
